sensor_id;sensor_type;location;lat;lon;timestamp;temperature;humidity
13970;DHT22;7057;49.984;8.404;2023-02-26T00:01:31;1.30;99.90
13970;DHT22;7057;49.984;8.404;2023-02-26T00:04:01;1.30;99.90
13970;DHT22;7057;49.984;8.404;2023-02-26T00:06:30;1.30;99.90
13970;DHT22;7057;49.984;8.404;2023-02-26T00:08:58;1.30;99.90
13970;DHT22;7057;49.984;8.404;2023-02-26T00:11:26;1.40;99.90
13970;DHT22;7057;49.984;8.404;2023-02-26T00:13:53;1.30;99.90
13970;DHT22;7057;49.984;8.404;2023-02-26T00:16:25;1.40;99.90
13970;DHT22;7057;49.984;8.404;2023-02-26T00:18:55;1.40;99.90
13970;DHT22;7057;49.984;8.404;2023-02-26T00:21:24;1.40;99.90
13970;DHT22;7057;49.984;8.404;2023-02-26T00:23:51;1.40;99.90
13970;DHT22;7057;49.984;8.404;2023-02-26T00:26:19;1.40;99.90
13970;DHT22;7057;49.984;8.404;2023-02-26T00:28:47;1.50;99.90
13970;DHT22;7057;49.984;8.404;2023-02-26T00:31:15;1.40;99.90
13970;DHT22;7057;49.984;8.404;2023-02-26T00:33:44;1.40;99.90
13970;DHT22;7057;49.984;8.404;2023-02-26T00:36:20;1.40;99.90
13970;DHT22;7057;49.984;8.404;2023-02-26T00:38:57;1.50;99.90
13970;DHT22;7057;49.984;8.404;2023-02-26T00:41:26;1.40;99.90
13970;DHT22;7057;49.984;8.404;2023-02-26T00:43:55;1.40;99.90
13970;DHT22;7057;49.984;8.404;2023-02-26T00:46:33;1.40;99.90
13970;DHT22;7057;49.984;8.404;2023-02-26T00:49:08;1.40;99.90
13970;DHT22;7057;49.984;8.404;2023-02-26T00:51:46;1.50;99.90
13970;DHT22;7057;49.984;8.404;2023-02-26T00:54:18;1.40;99.90
13970;DHT22;7057;49.984;8.404;2023-02-26T00:56:46;1.40;99.90
13970;DHT22;7057;49.984;8.404;2023-02-26T00:59:14;1.40;99.90
13970;DHT22;7057;49.984;8.404;2023-02-26T01:01:41;1.40;99.90
13970;DHT22;7057;49.984;8.404;2023-02-26T01:04:09;1.40;99.90
13970;DHT22;7057;49.984;8.404;2023-02-26T01:06:43;1.40;99.90
13970;DHT22;7057;49.984;8.404;2023-02-26T01:09:16;1.40;99.90
13970;DHT22;7057;49.984;8.404;2023-02-26T01:11:49;1.40;99.90
13970;DHT22;7057;49.984;8.404;2023-02-26T01:14:17;1.40;99.90
13970;DHT22;7057;49.984;8.404;2023-02-26T01:16:50;1.40;99.90
13970;DHT22;7057;49.984;8.404;2023-02-26T01:19:28;1.40;99.90
13970;DHT22;7057;49.984;8.404;2023-02-26T01:22:04;1.50;99.90
13970;DHT22;7057;49.984;8.404;2023-02-26T01:24:34;1.40;99.90
13970;DHT22;7057;49.984;8.404;2023-02-26T01:27:03;1.50;99.90
13970;DHT22;7057;49.984;8.404;2023-02-26T01:29:31;1.60;99.90
13970;DHT22;7057;49.984;8.404;2023-02-26T01:32:02;1.60;99.90
13970;DHT22;7057;49.984;8.404;2023-02-26T01:34:36;1.60;99.90
13970;DHT22;7057;49.984;8.404;2023-02-26T01:37:18;1.60;99.90
13970;DHT22;7057;49.984;8.404;2023-02-26T01:39:59;1.60;99.90
13970;DHT22;7057;49.984;8.404;2023-02-26T01:42:31;1.70;99.90
13970;DHT22;7057;49.984;8.404;2023-02-26T01:45:10;1.70;99.90
13970;DHT22;7057;49.984;8.404;2023-02-26T01:47:40;1.70;99.90
13970;DHT22;7057;49.984;8.404;2023-02-26T01:50:15;1.70;99.90
13970;DHT22;7057;49.984;8.404;2023-02-26T01:53:18;1.70;99.90
13970;DHT22;7057;49.984;8.404;2023-02-26T01:55:48;1.70;99.90
13970;DHT22;7057;49.984;8.404;2023-02-26T01:58:16;1.70;99.90
13970;DHT22;7057;49.984;8.404;2023-02-26T02:00:43;1.70;99.90
13970;DHT22;7057;49.984;8.404;2023-02-26T02:03:10;1.80;99.90
13970;DHT22;7057;49.984;8.404;2023-02-26T02:05:41;1.70;99.90
13970;DHT22;7057;49.984;8.404;2023-02-26T02:08:09;1.70;99.90
13970;DHT22;7057;49.984;8.404;2023-02-26T02:10:40;1.60;99.90
13970;DHT22;7057;49.984;8.404;2023-02-26T02:13:18;1.60;99.90
13970;DHT22;7057;49.984;8.404;2023-02-26T02:15:54;1.60;99.90
13970;DHT22;7057;49.984;8.404;2023-02-26T02:18:30;1.60;99.90
13970;DHT22;7057;49.984;8.404;2023-02-26T02:24:07;1.50;99.90
13970;DHT22;7057;49.984;8.404;2023-02-26T02:26:58;1.50;99.90
13970;DHT22;7057;49.984;8.404;2023-02-26T02:33:02;1.50;99.90
13970;DHT22;7057;49.984;8.404;2023-02-26T02:35:35;1.40;99.90
13970;DHT22;7057;49.984;8.404;2023-02-26T02:38:06;1.50;99.90
13970;DHT22;7057;49.984;8.404;2023-02-26T02:40:38;1.50;99.90
13970;DHT22;7057;49.984;8.404;2023-02-26T02:43:11;1.50;99.90
13970;DHT22;7057;49.984;8.404;2023-02-26T02:45:42;1.50;99.90
13970;DHT22;7057;49.984;8.404;2023-02-26T02:48:16;1.50;99.90
13970;DHT22;7057;49.984;8.404;2023-02-26T02:50:47;1.60;99.90
13970;DHT22;7057;49.984;8.404;2023-02-26T02:53:19;1.60;99.90
13970;DHT22;7057;49.984;8.404;2023-02-26T02:55:52;1.60;99.90
13970;DHT22;7057;49.984;8.404;2023-02-26T02:58:23;1.60;99.90
13970;DHT22;7057;49.984;8.404;2023-02-26T03:00:55;1.60;99.90
13970;DHT22;7057;49.984;8.404;2023-02-26T03:03:30;1.60;99.90
13970;DHT22;7057;49.984;8.404;2023-02-26T03:06:00;1.70;99.90
13970;DHT22;7057;49.984;8.404;2023-02-26T03:08:30;1.60;99.90
13970;DHT22;7057;49.984;8.404;2023-02-26T03:11:00;1.50;99.90
13970;DHT22;7057;49.984;8.404;2023-02-26T03:13:27;1.50;99.90
13970;DHT22;7057;49.984;8.404;2023-02-26T03:16:03;1.40;99.90
13970;DHT22;7057;49.984;8.404;2023-02-26T03:18:46;1.40;99.90
13970;DHT22;7057;49.984;8.404;2023-02-26T03:21:20;1.30;99.90
13970;DHT22;7057;49.984;8.404;2023-02-26T03:23:56;1.30;99.90
13970;DHT22;7057;49.984;8.404;2023-02-26T03:26:30;1.20;99.90
13970;DHT22;7057;49.984;8.404;2023-02-26T03:29:03;1.20;99.90
13970;DHT22;7057;49.984;8.404;2023-02-26T03:31:36;1.10;99.90
13970;DHT22;7057;49.984;8.404;2023-02-26T03:34:09;1.00;99.90
13970;DHT22;7057;49.984;8.404;2023-02-26T03:36:43;1.00;99.90
13970;DHT22;7057;49.984;8.404;2023-02-26T03:39:17;0.80;99.90
13970;DHT22;7057;49.984;8.404;2023-02-26T03:41:48;0.80;99.90
13970;DHT22;7057;49.984;8.404;2023-02-26T03:44:23;0.70;99.90
13970;DHT22;7057;49.984;8.404;2023-02-26T03:46:55;0.60;99.90
13970;DHT22;7057;49.984;8.404;2023-02-26T03:49:28;0.60;99.90
13970;DHT22;7057;49.984;8.404;2023-02-26T03:51:57;0.50;99.90
13970;DHT22;7057;49.984;8.404;2023-02-26T03:54:28;0.40;99.90
13970;DHT22;7057;49.984;8.404;2023-02-26T03:56:56;0.20;99.90
13970;DHT22;7057;49.984;8.404;2023-02-26T03:59:24;0.10;99.90
13970;DHT22;7057;49.984;8.404;2023-02-26T04:01:55;0.00;99.90
13970;DHT22;7057;49.984;8.404;2023-02-26T04:04:29;0.00;99.90
13970;DHT22;7057;49.984;8.404;2023-02-26T04:06:57;0.00;99.90
13970;DHT22;7057;49.984;8.404;2023-02-26T04:09:25;-0.10;99.90
13970;DHT22;7057;49.984;8.404;2023-02-26T04:11:53;-0.10;99.90
13970;DHT22;7057;49.984;8.404;2023-02-26T04:14:23;-0.20;99.90
13970;DHT22;7057;49.984;8.404;2023-02-26T04:16:50;-0.20;99.90
13970;DHT22;7057;49.984;8.404;2023-02-26T04:19:17;-0.20;99.90
13970;DHT22;7057;49.984;8.404;2023-02-26T04:21:46;-0.20;99.90
13970;DHT22;7057;49.984;8.404;2023-02-26T04:24:13;-0.20;99.90
13970;DHT22;7057;49.984;8.404;2023-02-26T04:26:40;-0.20;99.90
13970;DHT22;7057;49.984;8.404;2023-02-26T04:29:07;-0.30;99.90
13970;DHT22;7057;49.984;8.404;2023-02-26T04:31:34;-0.30;99.90
13970;DHT22;7057;49.984;8.404;2023-02-26T04:34:02;-0.30;99.90
13970;DHT22;7057;49.984;8.404;2023-02-26T04:36:29;-0.40;99.90
13970;DHT22;7057;49.984;8.404;2023-02-26T04:38:58;-0.40;99.90
13970;DHT22;7057;49.984;8.404;2023-02-26T04:41:25;-0.40;99.90
13970;DHT22;7057;49.984;8.404;2023-02-26T04:43:52;-0.40;99.90
13970;DHT22;7057;49.984;8.404;2023-02-26T04:46:19;-0.40;99.90
13970;DHT22;7057;49.984;8.404;2023-02-26T04:48:47;-0.40;99.90
13970;DHT22;7057;49.984;8.404;2023-02-26T04:51:14;-0.40;99.90
13970;DHT22;7057;49.984;8.404;2023-02-26T04:53:41;-0.40;99.90
13970;DHT22;7057;49.984;8.404;2023-02-26T04:56:10;-0.30;99.90
13970;DHT22;7057;49.984;8.404;2023-02-26T04:58:37;-0.30;99.90
13970;DHT22;7057;49.984;8.404;2023-02-26T05:01:04;-0.30;99.90
13970;DHT22;7057;49.984;8.404;2023-02-26T05:03:32;-0.40;99.90
13970;DHT22;7057;49.984;8.404;2023-02-26T05:05:59;-0.40;99.90
13970;DHT22;7057;49.984;8.404;2023-02-26T05:08:26;-0.40;99.90
13970;DHT22;7057;49.984;8.404;2023-02-26T05:10:53;-0.40;99.90
13970;DHT22;7057;49.984;8.404;2023-02-26T05:13:22;-0.50;99.90
13970;DHT22;7057;49.984;8.404;2023-02-26T05:15:49;-0.50;99.90
13970;DHT22;7057;49.984;8.404;2023-02-26T05:18:18;-0.60;99.90
13970;DHT22;7057;49.984;8.404;2023-02-26T05:20:51;-0.60;99.90
13970;DHT22;7057;49.984;8.404;2023-02-26T05:23:18;-0.50;99.90
13970;DHT22;7057;49.984;8.404;2023-02-26T05:25:46;-0.50;99.90
13970;DHT22;7057;49.984;8.404;2023-02-26T05:28:13;-0.50;99.90
13970;DHT22;7057;49.984;8.404;2023-02-26T05:30:42;-0.50;99.90
13970;DHT22;7057;49.984;8.404;2023-02-26T05:33:09;-0.50;99.90
13970;DHT22;7057;49.984;8.404;2023-02-26T05:35:36;-0.40;99.90
13970;DHT22;7057;49.984;8.404;2023-02-26T05:38:04;-0.40;99.90
13970;DHT22;7057;49.984;8.404;2023-02-26T05:40:31;-0.30;99.90
13970;DHT22;7057;49.984;8.404;2023-02-26T05:42:58;-0.20;99.90
13970;DHT22;7057;49.984;8.404;2023-02-26T05:45:25;-0.10;99.90
13970;DHT22;7057;49.984;8.404;2023-02-26T05:47:54;0.00;99.90
13970;DHT22;7057;49.984;8.404;2023-02-26T05:50:22;0.00;99.90
13970;DHT22;7057;49.984;8.404;2023-02-26T05:52:49;0.00;99.90
13970;DHT22;7057;49.984;8.404;2023-02-26T05:55:16;0.10;99.90
13970;DHT22;7057;49.984;8.404;2023-02-26T05:57:44;0.10;99.90
13970;DHT22;7057;49.984;8.404;2023-02-26T06:00:12;0.10;99.90
13970;DHT22;7057;49.984;8.404;2023-02-26T06:02:39;0.10;99.90
13970;DHT22;7057;49.984;8.404;2023-02-26T06:05:08;0.10;99.90
13970;DHT22;7057;49.984;8.404;2023-02-26T06:07:36;0.20;99.90
13970;DHT22;7057;49.984;8.404;2023-02-26T06:10:04;0.20;99.90
13970;DHT22;7057;49.984;8.404;2023-02-26T06:12:31;0.20;99.90
13970;DHT22;7057;49.984;8.404;2023-02-26T06:14:58;0.20;99.90
13970;DHT22;7057;49.984;8.404;2023-02-26T06:17:26;0.20;99.90
13970;DHT22;7057;49.984;8.404;2023-02-26T06:19:53;0.20;99.90
13970;DHT22;7057;49.984;8.404;2023-02-26T06:22:22;0.30;99.90
13970;DHT22;7057;49.984;8.404;2023-02-26T06:24:49;0.20;99.90
13970;DHT22;7057;49.984;8.404;2023-02-26T06:27:16;0.20;99.90
13970;DHT22;7057;49.984;8.404;2023-02-26T06:29:43;0.10;99.90
13970;DHT22;7057;49.984;8.404;2023-02-26T06:32:10;0.10;99.90
13970;DHT22;7057;49.984;8.404;2023-02-26T06:34:37;0.10;99.90
13970;DHT22;7057;49.984;8.404;2023-02-26T06:37:05;0.10;99.90
13970;DHT22;7057;49.984;8.404;2023-02-26T06:39:33;0.10;99.90
13970;DHT22;7057;49.984;8.404;2023-02-26T06:42:00;0.00;99.90
13970;DHT22;7057;49.984;8.404;2023-02-26T06:44:27;0.00;99.90
13970;DHT22;7057;49.984;8.404;2023-02-26T06:46:55;0.00;99.90
13970;DHT22;7057;49.984;8.404;2023-02-26T06:49:22;-0.10;99.90
13970;DHT22;7057;49.984;8.404;2023-02-26T06:51:49;-0.10;99.90
13970;DHT22;7057;49.984;8.404;2023-02-26T06:54:16;0.00;99.90
13970;DHT22;7057;49.984;8.404;2023-02-26T06:56:45;0.00;99.90
13970;DHT22;7057;49.984;8.404;2023-02-26T06:59:12;0.00;99.90
13970;DHT22;7057;49.984;8.404;2023-02-26T07:01:40;0.10;99.90
13970;DHT22;7057;49.984;8.404;2023-02-26T07:04:07;0.20;99.90
13970;DHT22;7057;49.984;8.404;2023-02-26T07:06:34;0.20;99.90
13970;DHT22;7057;49.984;8.404;2023-02-26T07:09:01;0.30;99.90
13970;DHT22;7057;49.984;8.404;2023-02-26T07:11:29;0.30;99.90
13970;DHT22;7057;49.984;8.404;2023-02-26T07:13:57;0.40;99.90
13970;DHT22;7057;49.984;8.404;2023-02-26T07:16:25;0.30;99.90
13970;DHT22;7057;49.984;8.404;2023-02-26T07:18:53;0.30;99.90
13970;DHT22;7057;49.984;8.404;2023-02-26T07:21:20;0.40;99.90
13970;DHT22;7057;49.984;8.404;2023-02-26T07:23:47;0.50;99.90
13970;DHT22;7057;49.984;8.404;2023-02-26T07:26:14;0.50;99.90
13970;DHT22;7057;49.984;8.404;2023-02-26T07:28:42;0.50;99.90
13970;DHT22;7057;49.984;8.404;2023-02-26T07:31:11;0.50;99.90
13970;DHT22;7057;49.984;8.404;2023-02-26T07:33:38;0.50;99.90
13970;DHT22;7057;49.984;8.404;2023-02-26T07:36:06;0.50;99.90
13970;DHT22;7057;49.984;8.404;2023-02-26T07:38:33;0.60;99.90
13970;DHT22;7057;49.984;8.404;2023-02-26T07:41:00;0.70;99.90
13970;DHT22;7057;49.984;8.404;2023-02-26T07:43:27;0.80;99.90
13970;DHT22;7057;49.984;8.404;2023-02-26T07:45:54;1.00;99.90
13970;DHT22;7057;49.984;8.404;2023-02-26T07:48:23;1.10;99.90
13970;DHT22;7057;49.984;8.404;2023-02-26T07:50:51;1.10;99.90
13970;DHT22;7057;49.984;8.404;2023-02-26T07:53:19;1.20;99.90
13970;DHT22;7057;49.984;8.404;2023-02-26T07:55:46;1.30;99.90
13970;DHT22;7057;49.984;8.404;2023-02-26T07:58:13;1.30;99.90
13970;DHT22;7057;49.984;8.404;2023-02-26T08:00:41;1.40;99.90
13970;DHT22;7057;49.984;8.404;2023-02-26T08:03:08;1.40;99.90
13970;DHT22;7057;49.984;8.404;2023-02-26T08:05:36;1.40;99.90
13970;DHT22;7057;49.984;8.404;2023-02-26T08:08:03;1.40;99.90
13970;DHT22;7057;49.984;8.404;2023-02-26T08:10:31;1.50;99.90
13970;DHT22;7057;49.984;8.404;2023-02-26T08:12:58;1.70;99.90
13970;DHT22;7057;49.984;8.404;2023-02-26T08:15:25;1.90;99.90
13970;DHT22;7057;49.984;8.404;2023-02-26T08:17:52;2.10;99.90
13970;DHT22;7057;49.984;8.404;2023-02-26T08:20:20;2.30;99.90
13970;DHT22;7057;49.984;8.404;2023-02-26T08:22:49;2.50;99.90
13970;DHT22;7057;49.984;8.404;2023-02-26T08:25:17;2.50;99.90
13970;DHT22;7057;49.984;8.404;2023-02-26T08:27:44;2.40;99.90
13970;DHT22;7057;49.984;8.404;2023-02-26T08:30:12;2.30;99.90
13970;DHT22;7057;49.984;8.404;2023-02-26T08:32:39;2.10;99.90
13970;DHT22;7057;49.984;8.404;2023-02-26T08:35:07;2.00;99.90
13970;DHT22;7057;49.984;8.404;2023-02-26T08:37:35;2.00;99.90
13970;DHT22;7057;49.984;8.404;2023-02-26T08:40:06;2.00;99.90
13970;DHT22;7057;49.984;8.404;2023-02-26T08:42:34;1.80;99.90
13970;DHT22;7057;49.984;8.404;2023-02-26T08:45:01;1.90;99.90
13970;DHT22;7057;49.984;8.404;2023-02-26T08:47:28;2.00;99.90
13970;DHT22;7057;49.984;8.404;2023-02-26T08:49:55;2.30;99.90
13970;DHT22;7057;49.984;8.404;2023-02-26T08:52:23;2.40;99.90
13970;DHT22;7057;49.984;8.404;2023-02-26T08:54:51;2.30;99.90
13970;DHT22;7057;49.984;8.404;2023-02-26T08:57:19;2.20;99.90
13970;DHT22;7057;49.984;8.404;2023-02-26T08:59:46;2.20;99.90
13970;DHT22;7057;49.984;8.404;2023-02-26T09:02:14;2.20;99.90
13970;DHT22;7057;49.984;8.404;2023-02-26T09:04:41;2.40;99.90
13970;DHT22;7057;49.984;8.404;2023-02-26T09:07:08;2.40;99.90
13970;DHT22;7057;49.984;8.404;2023-02-26T09:09:35;2.40;99.90
13970;DHT22;7057;49.984;8.404;2023-02-26T09:12:03;2.40;99.90
13970;DHT22;7057;49.984;8.404;2023-02-26T09:14:31;2.40;99.90
13970;DHT22;7057;49.984;8.404;2023-02-26T09:16:59;2.40;99.90
13970;DHT22;7057;49.984;8.404;2023-02-26T09:19:26;2.40;99.90
13970;DHT22;7057;49.984;8.404;2023-02-26T09:21:53;2.40;99.90
13970;DHT22;7057;49.984;8.404;2023-02-26T09:24:20;2.40;99.90
13970;DHT22;7057;49.984;8.404;2023-02-26T09:26:48;2.50;99.90
13970;DHT22;7057;49.984;8.404;2023-02-26T09:29:15;2.50;99.90
13970;DHT22;7057;49.984;8.404;2023-02-26T09:31:43;2.50;99.90
13970;DHT22;7057;49.984;8.404;2023-02-26T09:34:10;2.60;99.90
13970;DHT22;7057;49.984;8.404;2023-02-26T09:36:38;2.60;99.90
13970;DHT22;7057;49.984;8.404;2023-02-26T09:39:06;2.60;99.90
13970;DHT22;7057;49.984;8.404;2023-02-26T09:41:37;2.50;99.90
13970;DHT22;7057;49.984;8.404;2023-02-26T09:44:18;2.50;99.90
13970;DHT22;7057;49.984;8.404;2023-02-26T09:46:53;2.50;99.90
13970;DHT22;7057;49.984;8.404;2023-02-26T09:49:30;2.50;99.90
13970;DHT22;7057;49.984;8.404;2023-02-26T09:52:11;2.40;99.90
13970;DHT22;7057;49.984;8.404;2023-02-26T09:54:46;2.20;99.90
13970;DHT22;7057;49.984;8.404;2023-02-26T09:57:21;2.30;99.90
13970;DHT22;7057;49.984;8.404;2023-02-26T09:59:50;2.20;99.90
13970;DHT22;7057;49.984;8.404;2023-02-26T10:02:22;2.20;99.90
13970;DHT22;7057;49.984;8.404;2023-02-26T10:04:55;2.10;99.90
13970;DHT22;7057;49.984;8.404;2023-02-26T10:07:32;2.30;99.90
13970;DHT22;7057;49.984;8.404;2023-02-26T10:10:12;2.30;99.90
13970;DHT22;7057;49.984;8.404;2023-02-26T10:12:42;2.40;99.90
13970;DHT22;7057;49.984;8.404;2023-02-26T10:15:13;2.50;99.90
13970;DHT22;7057;49.984;8.404;2023-02-26T10:17:53;2.60;99.90
13970;DHT22;7057;49.984;8.404;2023-02-26T10:20:28;2.70;99.90
13970;DHT22;7057;49.984;8.404;2023-02-26T10:22:59;2.80;99.90
13970;DHT22;7057;49.984;8.404;2023-02-26T10:25:32;2.90;99.90
13970;DHT22;7057;49.984;8.404;2023-02-26T10:28:07;3.10;99.90
13970;DHT22;7057;49.984;8.404;2023-02-26T10:30:42;3.30;99.90
13970;DHT22;7057;49.984;8.404;2023-02-26T10:33:19;3.60;99.90
13970;DHT22;7057;49.984;8.404;2023-02-26T10:35:51;3.90;99.90
13970;DHT22;7057;49.984;8.404;2023-02-26T10:38:21;4.00;99.90
13970;DHT22;7057;49.984;8.404;2023-02-26T10:40:54;4.10;99.90
13970;DHT22;7057;49.984;8.404;2023-02-26T10:43:28;3.90;99.90
13970;DHT22;7057;49.984;8.404;2023-02-26T10:46:09;3.50;99.90
13970;DHT22;7057;49.984;8.404;2023-02-26T10:48:49;3.60;99.90
13970;DHT22;7057;49.984;8.404;2023-02-26T10:51:22;3.60;99.90
13970;DHT22;7057;49.984;8.404;2023-02-26T10:53:54;3.50;99.90
13970;DHT22;7057;49.984;8.404;2023-02-26T10:56:25;3.50;99.90
13970;DHT22;7057;49.984;8.404;2023-02-26T10:58:53;3.40;99.90
13970;DHT22;7057;49.984;8.404;2023-02-26T11:01:22;3.40;99.90
13970;DHT22;7057;49.984;8.404;2023-02-26T11:03:55;3.40;99.90
13970;DHT22;7057;49.984;8.404;2023-02-26T11:06:27;3.40;99.90
13970;DHT22;7057;49.984;8.404;2023-02-26T11:08:56;3.50;99.90
13970;DHT22;7057;49.984;8.404;2023-02-26T11:11:40;3.70;99.90
13970;DHT22;7057;49.984;8.404;2023-02-26T11:14:08;3.90;99.90
13970;DHT22;7057;49.984;8.404;2023-02-26T11:16:42;4.00;99.90
13970;DHT22;7057;49.984;8.404;2023-02-26T11:19:14;4.10;99.90
13970;DHT22;7057;49.984;8.404;2023-02-26T11:21:43;4.30;99.90
13970;DHT22;7057;49.984;8.404;2023-02-26T11:24:14;4.50;99.90
13970;DHT22;7057;49.984;8.404;2023-02-26T11:26:50;4.40;99.90
13970;DHT22;7057;49.984;8.404;2023-02-26T11:29:21;4.10;99.90
13970;DHT22;7057;49.984;8.404;2023-02-26T11:31:51;4.00;99.90
13970;DHT22;7057;49.984;8.404;2023-02-26T11:34:23;3.90;99.90
13970;DHT22;7057;49.984;8.404;2023-02-26T11:36:54;4.00;99.90
13970;DHT22;7057;49.984;8.404;2023-02-26T11:39:24;4.20;99.90
13970;DHT22;7057;49.984;8.404;2023-02-26T11:41:55;4.10;99.90
13970;DHT22;7057;49.984;8.404;2023-02-26T11:44:33;4.00;99.90
13970;DHT22;7057;49.984;8.404;2023-02-26T11:47:04;3.90;99.90
13970;DHT22;7057;49.984;8.404;2023-02-26T11:49:33;3.90;99.90
13970;DHT22;7057;49.984;8.404;2023-02-26T11:52:13;4.00;99.90
13970;DHT22;7057;49.984;8.404;2023-02-26T11:54:44;4.10;99.90
13970;DHT22;7057;49.984;8.404;2023-02-26T11:57:17;4.00;99.90
13970;DHT22;7057;49.984;8.404;2023-02-26T11:59:48;3.90;99.90
13970;DHT22;7057;49.984;8.404;2023-02-26T12:02:18;3.80;99.90
13970;DHT22;7057;49.984;8.404;2023-02-26T12:04:50;3.90;99.90
13970;DHT22;7057;49.984;8.404;2023-02-26T12:07:19;4.90;99.90
13970;DHT22;7057;49.984;8.404;2023-02-26T12:09:47;3.90;99.90
13970;DHT22;7057;49.984;8.404;2023-02-26T12:12:30;4.10;99.90
13970;DHT22;7057;49.984;8.404;2023-02-26T12:15:12;4.20;99.90
13970;DHT22;7057;49.984;8.404;2023-02-26T12:17:51;4.40;99.90
13970;DHT22;7057;49.984;8.404;2023-02-26T12:20:26;4.60;99.90
13970;DHT22;7057;49.984;8.404;2023-02-26T12:23:06;4.50;99.90
13970;DHT22;7057;49.984;8.404;2023-02-26T12:25:48;4.00;99.90
13970;DHT22;7057;49.984;8.404;2023-02-26T12:28:40;4.40;99.90
13970;DHT22;7057;49.984;8.404;2023-02-26T12:37:27;4.70;99.90
13970;DHT22;7057;49.984;8.404;2023-02-26T12:42:54;4.70;99.90
13970;DHT22;7057;49.984;8.404;2023-02-26T12:45:35;4.60;99.90
13970;DHT22;7057;49.984;8.404;2023-02-26T12:48:22;4.50;99.90
13970;DHT22;7057;49.984;8.404;2023-02-26T12:51:00;4.60;99.90
13970;DHT22;7057;49.984;8.404;2023-02-26T12:53:52;4.80;99.90
13970;DHT22;7057;49.984;8.404;2023-02-26T12:56:43;4.90;99.90
13970;DHT22;7057;49.984;8.404;2023-02-26T12:59:26;4.90;99.90
13970;DHT22;7057;49.984;8.404;2023-02-26T13:02:11;4.90;99.90
13970;DHT22;7057;49.984;8.404;2023-02-26T13:05:08;4.70;99.90
13970;DHT22;7057;49.984;8.404;2023-02-26T13:07:47;4.60;99.90
13970;DHT22;7057;49.984;8.404;2023-02-26T13:10:25;4.30;99.90
13970;DHT22;7057;49.984;8.404;2023-02-26T13:13:04;4.30;99.90
13970;DHT22;7057;49.984;8.404;2023-02-26T13:15:59;4.30;99.90
13970;DHT22;7057;49.984;8.404;2023-02-26T13:18:33;4.40;99.90
13970;DHT22;7057;49.984;8.404;2023-02-26T13:21:05;4.50;99.90
13970;DHT22;7057;49.984;8.404;2023-02-26T13:23:37;4.60;99.90
13970;DHT22;7057;49.984;8.404;2023-02-26T13:26:10;4.60;99.90
13970;DHT22;7057;49.984;8.404;2023-02-26T13:28:42;4.80;99.90
13970;DHT22;7057;49.984;8.404;2023-02-26T13:31:14;4.90;99.90
13970;DHT22;7057;49.984;8.404;2023-02-26T13:33:44;4.80;99.90
13970;DHT22;7057;49.984;8.404;2023-02-26T13:36:13;4.80;99.90
13970;DHT22;7057;49.984;8.404;2023-02-26T13:38:52;4.70;99.90
13970;DHT22;7057;49.984;8.404;2023-02-26T13:41:29;4.30;99.90
13970;DHT22;7057;49.984;8.404;2023-02-26T13:44:09;4.40;99.90
13970;DHT22;7057;49.984;8.404;2023-02-26T13:46:49;4.50;99.90
13970;DHT22;7057;49.984;8.404;2023-02-26T13:49:22;4.50;99.90
13970;DHT22;7057;49.984;8.404;2023-02-26T13:51:53;4.60;99.90
13970;DHT22;7057;49.984;8.404;2023-02-26T13:54:33;4.70;99.90
13970;DHT22;7057;49.984;8.404;2023-02-26T13:57:24;4.70;99.90
13970;DHT22;7057;49.984;8.404;2023-02-26T13:59:56;4.60;99.90
13970;DHT22;7057;49.984;8.404;2023-02-26T14:02:45;4.60;99.90
13970;DHT22;7057;49.984;8.404;2023-02-26T14:08:26;4.30;99.90
13970;DHT22;7057;49.984;8.404;2023-02-26T14:10:56;4.30;99.90
13970;DHT22;7057;49.984;8.404;2023-02-26T14:13:33;4.30;99.90
13970;DHT22;7057;49.984;8.404;2023-02-26T14:16:09;4.30;99.90
13970;DHT22;7057;49.984;8.404;2023-02-26T14:18:41;4.20;99.90
13970;DHT22;7057;49.984;8.404;2023-02-26T14:21:48;4.20;99.90
13970;DHT22;7057;49.984;8.404;2023-02-26T14:24:20;4.20;99.90
13970;DHT22;7057;49.984;8.404;2023-02-26T14:26:50;4.30;99.90
13970;DHT22;7057;49.984;8.404;2023-02-26T14:29:38;4.30;99.90
13970;DHT22;7057;49.984;8.404;2023-02-26T14:32:15;4.50;99.90
13970;DHT22;7057;49.984;8.404;2023-02-26T14:34:50;4.50;99.90
13970;DHT22;7057;49.984;8.404;2023-02-26T14:37:20;4.60;99.90
13970;DHT22;7057;49.984;8.404;2023-02-26T14:39:53;4.60;99.90
13970;DHT22;7057;49.984;8.404;2023-02-26T14:42:22;4.70;99.90
13970;DHT22;7057;49.984;8.404;2023-02-26T14:45:02;4.50;99.90
13970;DHT22;7057;49.984;8.404;2023-02-26T14:47:32;4.50;99.90
13970;DHT22;7057;49.984;8.404;2023-02-26T14:49:59;4.50;99.90
13970;DHT22;7057;49.984;8.404;2023-02-26T14:55:44;4.60;99.90
13970;DHT22;7057;49.984;8.404;2023-02-26T14:58:26;4.70;99.90
13970;DHT22;7057;49.984;8.404;2023-02-26T15:01:06;4.60;99.90
13970;DHT22;7057;49.984;8.404;2023-02-26T15:06:47;4.60;99.90
13970;DHT22;7057;49.984;8.404;2023-02-26T15:09:19;4.60;99.90
13970;DHT22;7057;49.984;8.404;2023-02-26T15:12:09;4.60;99.90
13970;DHT22;7057;49.984;8.404;2023-02-26T15:17:53;4.40;99.90
13970;DHT22;7057;49.984;8.404;2023-02-26T15:20:29;4.30;99.90
13970;DHT22;7057;49.984;8.404;2023-02-26T15:23:26;4.20;99.90
13970;DHT22;7057;49.984;8.404;2023-02-26T15:25:55;4.20;99.90
13970;DHT22;7057;49.984;8.404;2023-02-26T15:28:26;4.20;99.90
13970;DHT22;7057;49.984;8.404;2023-02-26T15:30:55;4.20;99.90
13970;DHT22;7057;49.984;8.404;2023-02-26T15:33:25;4.20;99.90
13970;DHT22;7057;49.984;8.404;2023-02-26T15:35:54;4.20;99.90
13970;DHT22;7057;49.984;8.404;2023-02-26T15:38:21;4.20;99.90
13970;DHT22;7057;49.984;8.404;2023-02-26T15:40:51;4.30;99.90
13970;DHT22;7057;49.984;8.404;2023-02-26T15:43:22;4.20;99.90
13970;DHT22;7057;49.984;8.404;2023-02-26T15:45:52;4.20;99.90
13970;DHT22;7057;49.984;8.404;2023-02-26T15:48:23;4.20;99.90
13970;DHT22;7057;49.984;8.404;2023-02-26T15:50:56;4.20;99.90
13970;DHT22;7057;49.984;8.404;2023-02-26T15:53:28;4.20;99.90
13970;DHT22;7057;49.984;8.404;2023-02-26T15:55:58;4.30;99.90
13970;DHT22;7057;49.984;8.404;2023-02-26T15:58:34;4.20;99.90
13970;DHT22;7057;49.984;8.404;2023-02-26T16:01:03;4.20;99.90
13970;DHT22;7057;49.984;8.404;2023-02-26T16:03:34;4.20;99.90
13970;DHT22;7057;49.984;8.404;2023-02-26T16:06:15;4.10;99.90
13970;DHT22;7057;49.984;8.404;2023-02-26T16:08:43;4.10;99.90
13970;DHT22;7057;49.984;8.404;2023-02-26T16:11:11;4.00;99.90
13970;DHT22;7057;49.984;8.404;2023-02-26T16:13:40;3.90;99.90
13970;DHT22;7057;49.984;8.404;2023-02-26T16:16:16;3.80;99.90
13970;DHT22;7057;49.984;8.404;2023-02-26T16:18:45;3.80;99.90
13970;DHT22;7057;49.984;8.404;2023-02-26T16:21:25;3.80;99.90
13970;DHT22;7057;49.984;8.404;2023-02-26T16:23:55;3.70;99.90
13970;DHT22;7057;49.984;8.404;2023-02-26T16:26:27;3.70;99.90
13970;DHT22;7057;49.984;8.404;2023-02-26T16:28:58;3.60;99.90
13970;DHT22;7057;49.984;8.404;2023-02-26T16:31:26;3.60;99.90
13970;DHT22;7057;49.984;8.404;2023-02-26T16:33:58;3.60;99.90
13970;DHT22;7057;49.984;8.404;2023-02-26T16:36:30;3.50;99.90
13970;DHT22;7057;49.984;8.404;2023-02-26T16:39:01;3.50;99.90
13970;DHT22;7057;49.984;8.404;2023-02-26T16:41:37;3.40;99.90
13970;DHT22;7057;49.984;8.404;2023-02-26T16:44:35;3.40;99.90
13970;DHT22;7057;49.984;8.404;2023-02-26T16:47:04;3.30;99.90
13970;DHT22;7057;49.984;8.404;2023-02-26T16:49:33;3.20;99.90
13970;DHT22;7057;49.984;8.404;2023-02-26T16:52:04;3.10;99.90
13970;DHT22;7057;49.984;8.404;2023-02-26T16:54:34;3.10;99.90
13970;DHT22;7057;49.984;8.404;2023-02-26T16:57:05;3.00;99.90